sensor_id;sensor_type;location;lat;lon;timestamp;P1;durP1;ratioP1;P2;durP2;ratioP2
17917;SDS011;9084;50.956;3.106;2024-02-21T00:02:09;2.13;;;1.92;;
17917;SDS011;9084;50.956;3.106;2024-02-21T00:04:35;2.13;;;1.67;;
17917;SDS011;9084;50.956;3.106;2024-02-21T00:07:06;3.50;;;2.13;;
17917;SDS011;9084;50.956;3.106;2024-02-21T00:09:33;2.67;;;1.90;;
17917;SDS011;9084;50.956;3.106;2024-02-21T00:11:59;1.70;;;1.60;;
17917;SDS011;9084;50.956;3.106;2024-02-21T00:14:26;3.47;;;2.03;;
17917;SDS011;9084;50.956;3.106;2024-02-21T00:16:54;2.28;;;1.77;;
17917;SDS011;9084;50.956;3.106;2024-02-21T00:19:22;3.70;;;1.77;;
17917;SDS011;9084;50.956;3.106;2024-02-21T00:21:47;2.70;;;1.88;;
17917;SDS011;9084;50.956;3.106;2024-02-21T00:24:13;2.33;;;1.70;;
17917;SDS011;9084;50.956;3.106;2024-02-21T00:26:41;1.67;;;1.58;;
17917;SDS011;9084;50.956;3.106;2024-02-21T00:29:09;2.47;;;2.00;;
17917;SDS011;9084;50.956;3.106;2024-02-21T00:31:35;2.63;;;1.88;;
17917;SDS011;9084;50.956;3.106;2024-02-21T00:34:03;2.53;;;1.75;;
17917;SDS011;9084;50.956;3.106;2024-02-21T00:36:28;2.50;;;2.17;;
17917;SDS011;9084;50.956;3.106;2024-02-21T00:38:54;1.98;;;1.77;;
17917;SDS011;9084;50.956;3.106;2024-02-21T00:41:19;2.08;;;1.90;;
17917;SDS011;9084;50.956;3.106;2024-02-21T00:43:45;3.72;;;2.00;;
17917;SDS011;9084;50.956;3.106;2024-02-21T00:46:13;2.08;;;1.88;;
17917;SDS011;9084;50.956;3.106;2024-02-21T00:48:39;1.70;;;1.60;;
17917;SDS011;9084;50.956;3.106;2024-02-21T00:51:04;3.70;;;1.63;;
17917;SDS011;9084;50.956;3.106;2024-02-21T00:53:30;2.42;;;1.75;;
17917;SDS011;9084;50.956;3.106;2024-02-21T00:55:58;2.30;;;2.10;;
17917;SDS011;9084;50.956;3.106;2024-02-21T00:58:24;3.55;;;2.53;;
17917;SDS011;9084;50.956;3.106;2024-02-21T01:00:52;2.95;;;2.15;;
17917;SDS011;9084;50.956;3.106;2024-02-21T01:03:20;2.60;;;2.40;;
17917;SDS011;9084;50.956;3.106;2024-02-21T01:05:45;3.25;;;2.28;;
17917;SDS011;9084;50.956;3.106;2024-02-21T01:08:11;2.38;;;2.17;;
17917;SDS011;9084;50.956;3.106;2024-02-21T01:10:39;2.55;;;1.98;;
17917;SDS011;9084;50.956;3.106;2024-02-21T01:13:04;3.30;;;2.30;;
17917;SDS011;9084;50.956;3.106;2024-02-21T01:15:30;2.63;;;2.33;;
17917;SDS011;9084;50.956;3.106;2024-02-21T01:17:58;2.70;;;2.47;;
17917;SDS011;9084;50.956;3.106;2024-02-21T01:20:24;2.28;;;2.08;;
17917;SDS011;9084;50.956;3.106;2024-02-21T01:22:51;2.55;;;2.35;;
17917;SDS011;9084;50.956;3.106;2024-02-21T01:25:17;2.42;;;2.22;;
17917;SDS011;9084;50.956;3.106;2024-02-21T01:27:45;4.70;;;2.60;;
17917;SDS011;9084;50.956;3.106;2024-02-21T01:30:11;3.25;;;2.88;;
17917;SDS011;9084;50.956;3.106;2024-02-21T01:32:37;2.72;;;2.47;;
17917;SDS011;9084;50.956;3.106;2024-02-21T01:35:02;2.67;;;2.47;;
17917;SDS011;9084;50.956;3.106;2024-02-21T01:37:28;3.20;;;2.90;;
17917;SDS011;9084;50.956;3.106;2024-02-21T01:39:54;4.07;;;2.70;;
17917;SDS011;9084;50.956;3.106;2024-02-21T01:42:21;3.33;;;3.03;;
17917;SDS011;9084;50.956;3.106;2024-02-21T01:44:47;3.55;;;3.13;;
17917;SDS011;9084;50.956;3.106;2024-02-21T01:47:13;3.20;;;2.90;;
17917;SDS011;9084;50.956;3.106;2024-02-21T01:49:42;7.25;;;3.30;;
17917;SDS011;9084;50.956;3.106;2024-02-21T01:52:08;3.20;;;2.65;;
17917;SDS011;9084;50.956;3.106;2024-02-21T01:54:36;4.22;;;3.75;;
17917;SDS011;9084;50.956;3.106;2024-02-21T01:57:04;5.32;;;3.30;;
17917;SDS011;9084;50.956;3.106;2024-02-21T01:59:30;4.47;;;4.05;;
17917;SDS011;9084;50.956;3.106;2024-02-21T02:01:58;4.07;;;3.55;;
17917;SDS011;9084;50.956;3.106;2024-02-21T02:04:25;8.32;;;3.67;;
17917;SDS011;9084;50.956;3.106;2024-02-21T02:06:51;4.35;;;3.95;;
17917;SDS011;9084;50.956;3.106;2024-02-21T02:09:19;4.53;;;3.15;;
17917;SDS011;9084;50.956;3.106;2024-02-21T02:11:47;7.43;;;3.85;;
17917;SDS011;9084;50.956;3.106;2024-02-21T02:14:13;5.57;;;3.60;;
17917;SDS011;9084;50.956;3.106;2024-02-21T02:16:41;4.60;;;4.20;;
17917;SDS011;9084;50.956;3.106;2024-02-21T02:19:09;6.45;;;4.00;;
17917;SDS011;9084;50.956;3.106;2024-02-21T02:21:39;6.28;;;5.00;;
17917;SDS011;9084;50.956;3.106;2024-02-21T02:24:12;5.88;;;4.15;;
17917;SDS011;9084;50.956;3.106;2024-02-21T02:26:39;7.28;;;4.38;;
17917;SDS011;9084;50.956;3.106;2024-02-21T02:29:05;5.70;;;4.30;;
17917;SDS011;9084;50.956;3.106;2024-02-21T02:31:30;5.30;;;4.80;;
17917;SDS011;9084;50.956;3.106;2024-02-21T02:33:56;5.53;;;5.03;;
17917;SDS011;9084;50.956;3.106;2024-02-21T02:36:24;5.72;;;4.82;;
17917;SDS011;9084;50.956;3.106;2024-02-21T02:38:49;7.38;;;5.50;;
17917;SDS011;9084;50.956;3.106;2024-02-21T02:41:15;7.43;;;5.38;;
17917;SDS011;9084;50.956;3.106;2024-02-21T02:43:43;9.02;;;4.70;;
17917;SDS011;9084;50.956;3.106;2024-02-21T02:46:08;8.88;;;5.38;;
17917;SDS011;9084;50.956;3.106;2024-02-21T02:48:36;7.22;;;4.35;;
17917;SDS011;9084;50.956;3.106;2024-02-21T02:51:03;7.50;;;4.45;;
17917;SDS011;9084;50.956;3.106;2024-02-21T02:53:29;6.72;;;4.28;;
17917;SDS011;9084;50.956;3.106;2024-02-21T02:55:57;6.00;;;4.00;;
17917;SDS011;9084;50.956;3.106;2024-02-21T02:58:27;11.05;;;4.40;;
17917;SDS011;9084;50.956;3.106;2024-02-21T03:00:53;8.40;;;4.25;;
17917;SDS011;9084;50.956;3.106;2024-02-21T03:03:19;7.47;;;3.83;;
17917;SDS011;9084;50.956;3.106;2024-02-21T03:05:47;5.85;;;4.07;;
17917;SDS011;9084;50.956;3.106;2024-02-21T03:08:12;6.97;;;4.63;;
17917;SDS011;9084;50.956;3.106;2024-02-21T03:10:40;6.85;;;5.35;;
17917;SDS011;9084;50.956;3.106;2024-02-21T03:13:06;10.10;;;4.25;;
17917;SDS011;9084;50.956;3.106;2024-02-21T03:15:36;7.47;;;4.57;;
17917;SDS011;9084;50.956;3.106;2024-02-21T03:18:02;7.90;;;4.57;;
17917;SDS011;9084;50.956;3.106;2024-02-21T03:20:31;8.25;;;4.97;;
17917;SDS011;9084;50.956;3.106;2024-02-21T03:23:01;10.95;;;5.47;;
17917;SDS011;9084;50.956;3.106;2024-02-21T03:25:27;10.45;;;5.25;;
17917;SDS011;9084;50.956;3.106;2024-02-21T03:27:55;7.43;;;5.07;;
17917;SDS011;9084;50.956;3.106;2024-02-21T03:30:20;12.30;;;5.80;;
17917;SDS011;9084;50.956;3.106;2024-02-21T03:32:46;10.10;;;5.57;;
17917;SDS011;9084;50.956;3.106;2024-02-21T03:35:11;11.10;;;5.07;;
17917;SDS011;9084;50.956;3.106;2024-02-21T03:37:37;8.07;;;4.50;;
17917;SDS011;9084;50.956;3.106;2024-02-21T03:40:06;7.22;;;5.07;;
17917;SDS011;9084;50.956;3.106;2024-02-21T03:42:33;9.65;;;5.50;;
17917;SDS011;9084;50.956;3.106;2024-02-21T03:44:58;9.18;;;5.40;;
17917;SDS011;9084;50.956;3.106;2024-02-21T03:47:26;9.65;;;4.90;;
17917;SDS011;9084;50.956;3.106;2024-02-21T03:49:52;8.38;;;4.40;;
17917;SDS011;9084;50.956;3.106;2024-02-21T03:52:20;8.55;;;5.35;;
17917;SDS011;9084;50.956;3.106;2024-02-21T03:54:45;8.00;;;5.47;;
17917;SDS011;9084;50.956;3.106;2024-02-21T03:57:13;5.72;;;4.78;;
17917;SDS011;9084;50.956;3.106;2024-02-21T03:59:39;7.78;;;5.00;;
17917;SDS011;9084;50.956;3.106;2024-02-21T04:02:05;6.15;;;4.40;;
17917;SDS011;9084;50.956;3.106;2024-02-21T04:04:33;10.45;;;4.85;;
17917;SDS011;9084;50.956;3.106;2024-02-21T04:07:02;8.80;;;4.93;;
17917;SDS011;9084;50.956;3.106;2024-02-21T04:09:32;7.90;;;4.38;;
17917;SDS011;9084;50.956;3.106;2024-02-21T04:12:00;5.88;;;4.30;;
17917;SDS011;9084;50.956;3.106;2024-02-21T04:14:31;6.85;;;4.70;;
17917;SDS011;9084;50.956;3.106;2024-02-21T04:16:57;7.30;;;4.35;;
17917;SDS011;9084;50.956;3.106;2024-02-21T04:19:22;8.50;;;4.93;;
17917;SDS011;9084;50.956;3.106;2024-02-21T04:21:48;6.90;;;5.00;;
17917;SDS011;9084;50.956;3.106;2024-02-21T04:24:14;7.57;;;4.88;;
17917;SDS011;9084;50.956;3.106;2024-02-21T04:26:39;5.95;;;4.70;;
17917;SDS011;9084;50.956;3.106;2024-02-21T04:29:08;9.57;;;4.43;;
17917;SDS011;9084;50.956;3.106;2024-02-21T04:31:34;6.20;;;4.68;;
17917;SDS011;9084;50.956;3.106;2024-02-21T04:34:00;7.97;;;4.80;;
17917;SDS011;9084;50.956;3.106;2024-02-21T04:36:25;6.90;;;4.60;;
17917;SDS011;9084;50.956;3.106;2024-02-21T04:38:51;6.25;;;5.03;;
17917;SDS011;9084;50.956;3.106;2024-02-21T04:41:19;5.97;;;4.80;;
17917;SDS011;9084;50.956;3.106;2024-02-21T04:43:45;8.63;;;5.30;;
17917;SDS011;9084;50.956;3.106;2024-02-21T04:46:12;7.28;;;4.57;;
17917;SDS011;9084;50.956;3.106;2024-02-21T04:48:40;7.93;;;5.43;;
17917;SDS011;9084;50.956;3.106;2024-02-21T04:51:06;11.07;;;5.45;;
17917;SDS011;9084;50.956;3.106;2024-02-21T04:53:32;6.38;;;4.63;;
17917;SDS011;9084;50.956;3.106;2024-02-21T04:56:00;6.47;;;5.05;;
17917;SDS011;9084;50.956;3.106;2024-02-21T04:58:25;8.40;;;4.78;;
17917;SDS011;9084;50.956;3.106;2024-02-21T05:00:51;6.45;;;4.50;;
17917;SDS011;9084;50.956;3.106;2024-02-21T05:03:19;6.55;;;4.10;;
17917;SDS011;9084;50.956;3.106;2024-02-21T05:05:45;7.80;;;4.65;;
17917;SDS011;9084;50.956;3.106;2024-02-21T05:08:13;6.53;;;4.82;;
17917;SDS011;9084;50.956;3.106;2024-02-21T05:10:39;8.05;;;4.88;;
17917;SDS011;9084;50.956;3.106;2024-02-21T05:13:07;5.70;;;4.85;;
17917;SDS011;9084;50.956;3.106;2024-02-21T05:15:32;9.20;;;4.53;;
17917;SDS011;9084;50.956;3.106;2024-02-21T05:17:59;5.00;;;4.47;;
17917;SDS011;9084;50.956;3.106;2024-02-21T05:20:25;6.68;;;4.60;;
17917;SDS011;9084;50.956;3.106;2024-02-21T05:22:50;7.78;;;4.55;;
17917;SDS011;9084;50.956;3.106;2024-02-21T05:25:16;5.97;;;4.10;;
17917;SDS011;9084;50.956;3.106;2024-02-21T05:27:44;6.40;;;4.85;;
17917;SDS011;9084;50.956;3.106;2024-02-21T05:30:11;4.90;;;4.30;;
17917;SDS011;9084;50.956;3.106;2024-02-21T05:32:37;5.68;;;4.72;;
17917;SDS011;9084;50.956;3.106;2024-02-21T05:35:05;5.32;;;4.40;;
17917;SDS011;9084;50.956;3.106;2024-02-21T05:37:31;4.57;;;4.18;;
17917;SDS011;9084;50.956;3.106;2024-02-21T05:39:56;6.32;;;3.90;;
17917;SDS011;9084;50.956;3.106;2024-02-21T05:42:22;6.10;;;4.03;;
17917;SDS011;9084;50.956;3.106;2024-02-21T05:44:47;9.18;;;4.00;;
17917;SDS011;9084;50.956;3.106;2024-02-21T05:47:15;7.47;;;4.45;;
17917;SDS011;9084;50.956;3.106;2024-02-21T05:49:45;6.43;;;4.30;;
17917;SDS011;9084;50.956;3.106;2024-02-21T05:52:11;8.75;;;4.38;;
17917;SDS011;9084;50.956;3.106;2024-02-21T05:54:39;6.47;;;5.10;;
17917;SDS011;9084;50.956;3.106;2024-02-21T05:57:07;6.43;;;4.20;;
17917;SDS011;9084;50.956;3.106;2024-02-21T05:59:33;6.72;;;4.30;;
17917;SDS011;9084;50.956;3.106;2024-02-21T06:02:01;8.23;;;4.13;;
17917;SDS011;9084;50.956;3.106;2024-02-21T06:04:28;5.50;;;4.65;;
17917;SDS011;9084;50.956;3.106;2024-02-21T06:06:56;5.25;;;4.35;;
17917;SDS011;9084;50.956;3.106;2024-02-21T06:09:25;6.70;;;4.10;;
17917;SDS011;9084;50.956;3.106;2024-02-21T06:11:50;6.38;;;4.10;;
17917;SDS011;9084;50.956;3.106;2024-02-21T06:14:19;6.32;;;4.20;;
17917;SDS011;9084;50.956;3.106;2024-02-21T06:16:44;4.70;;;3.13;;
17917;SDS011;9084;50.956;3.106;2024-02-21T06:19:10;7.10;;;4.20;;
17917;SDS011;9084;50.956;3.106;2024-02-21T06:21:36;5.65;;;4.18;;
17917;SDS011;9084;50.956;3.106;2024-02-21T06:24:04;5.57;;;3.97;;
17917;SDS011;9084;50.956;3.106;2024-02-21T06:26:33;5.82;;;4.30;;
17917;SDS011;9084;50.956;3.106;2024-02-21T06:28:58;4.28;;;3.80;;
17917;SDS011;9084;50.956;3.106;2024-02-21T06:31:27;7.65;;;4.53;;
17917;SDS011;9084;50.956;3.106;2024-02-21T06:33:56;5.78;;;3.97;;
17917;SDS011;9084;50.956;3.106;2024-02-21T06:36:22;5.03;;;3.95;;
17917;SDS011;9084;50.956;3.106;2024-02-21T06:38:48;5.88;;;3.65;;
17917;SDS011;9084;50.956;3.106;2024-02-21T06:41:14;6.38;;;3.97;;
17917;SDS011;9084;50.956;3.106;2024-02-21T06:43:44;5.40;;;4.30;;
17917;SDS011;9084;50.956;3.106;2024-02-21T06:46:11;4.38;;;3.55;;
17917;SDS011;9084;50.956;3.106;2024-02-21T06:48:39;5.25;;;3.72;;
17917;SDS011;9084;50.956;3.106;2024-02-21T06:51:05;4.18;;;3.78;;
17917;SDS011;9084;50.956;3.106;2024-02-21T06:53:31;4.55;;;4.03;;
17917;SDS011;9084;50.956;3.106;2024-02-21T06:55:56;5.10;;;3.90;;
17917;SDS011;9084;50.956;3.106;2024-02-21T06:58:26;5.18;;;3.83;;
17917;SDS011;9084;50.956;3.106;2024-02-21T07:00:54;5.00;;;3.38;;
17917;SDS011;9084;50.956;3.106;2024-02-21T07:03:22;6.75;;;3.80;;
17917;SDS011;9084;50.956;3.106;2024-02-21T07:05:49;5.10;;;3.70;;
17917;SDS011;9084;50.956;3.106;2024-02-21T07:08:17;4.65;;;3.33;;
17917;SDS011;9084;50.956;3.106;2024-02-21T07:10:43;4.20;;;3.40;;
17917;SDS011;9084;50.956;3.106;2024-02-21T07:13:11;4.43;;;4.03;;
17917;SDS011;9084;50.956;3.106;2024-02-21T07:15:39;4.03;;;3.53;;
17917;SDS011;9084;50.956;3.106;2024-02-21T07:18:07;5.25;;;3.92;;
17917;SDS011;9084;50.956;3.106;2024-02-21T07:20:33;6.40;;;3.80;;
17917;SDS011;9084;50.956;3.106;2024-02-21T07:22:59;6.10;;;3.75;;
17917;SDS011;9084;50.956;3.106;2024-02-21T07:25:27;5.82;;;3.38;;
17917;SDS011;9084;50.956;3.106;2024-02-21T07:27:53;4.50;;;3.75;;
17917;SDS011;9084;50.956;3.106;2024-02-21T07:30:18;3.80;;;3.25;;
17917;SDS011;9084;50.956;3.106;2024-02-21T07:32:49;4.63;;;4.10;;
17917;SDS011;9084;50.956;3.106;2024-02-21T07:35:15;4.32;;;3.92;;
17917;SDS011;9084;50.956;3.106;2024-02-21T07:37:41;3.70;;;3.20;;
17917;SDS011;9084;50.956;3.106;2024-02-21T07:40:14;6.38;;;3.88;;
17917;SDS011;9084;50.956;3.106;2024-02-21T07:42:43;7.75;;;3.67;;
17917;SDS011;9084;50.956;3.106;2024-02-21T07:45:11;5.35;;;3.90;;
17917;SDS011;9084;50.956;3.106;2024-02-21T07:47:37;5.57;;;3.10;;
17917;SDS011;9084;50.956;3.106;2024-02-21T07:50:05;4.32;;;3.60;;
17917;SDS011;9084;50.956;3.106;2024-02-21T07:52:34;4.15;;;3.50;;
17917;SDS011;9084;50.956;3.106;2024-02-21T07:55:02;5.47;;;3.45;;
17917;SDS011;9084;50.956;3.106;2024-02-21T07:57:30;5.28;;;3.75;;
17917;SDS011;9084;50.956;3.106;2024-02-21T07:59:58;5.53;;;3.72;;
17917;SDS011;9084;50.956;3.106;2024-02-21T08:02:26;5.57;;;3.88;;
17917;SDS011;9084;50.956;3.106;2024-02-21T08:04:52;5.63;;;3.88;;
17917;SDS011;9084;50.956;3.106;2024-02-21T08:07:17;3.75;;;3.20;;
17917;SDS011;9084;50.956;3.106;2024-02-21T08:09:43;4.85;;;3.45;;
17917;SDS011;9084;50.956;3.106;2024-02-21T08:12:09;4.47;;;3.55;;
17917;SDS011;9084;50.956;3.106;2024-02-21T08:14:34;4.90;;;3.47;;
17917;SDS011;9084;50.956;3.106;2024-02-21T08:17:02;4.88;;;3.55;;
17917;SDS011;9084;50.956;3.106;2024-02-21T08:19:30;3.50;;;3.10;;
17917;SDS011;9084;50.956;3.106;2024-02-21T08:21:56;5.05;;;3.30;;
17917;SDS011;9084;50.956;3.106;2024-02-21T08:24:22;4.10;;;3.67;;
17917;SDS011;9084;50.956;3.106;2024-02-21T08:26:48;4.97;;;4.45;;
17917;SDS011;9084;50.956;3.106;2024-02-21T08:29:13;4.65;;;3.80;;
17917;SDS011;9084;50.956;3.106;2024-02-21T08:31:39;4.75;;;3.58;;
17917;SDS011;9084;50.956;3.106;2024-02-21T08:34:05;4.55;;;3.70;;
17917;SDS011;9084;50.956;3.106;2024-02-21T08:36:31;6.75;;;4.32;;
17917;SDS011;9084;50.956;3.106;2024-02-21T08:38:59;6.25;;;4.50;;
17917;SDS011;9084;50.956;3.106;2024-02-21T08:41:29;5.22;;;4.03;;
17917;SDS011;9084;50.956;3.106;2024-02-21T08:44:01;5.25;;;4.03;;
17917;SDS011;9084;50.956;3.106;2024-02-21T08:46:26;5.57;;;3.92;;
17917;SDS011;9084;50.956;3.106;2024-02-21T08:48:56;7.22;;;4.60;;
17917;SDS011;9084;50.956;3.106;2024-02-21T08:51:22;4.65;;;4.07;;
17917;SDS011;9084;50.956;3.106;2024-02-21T08:53:47;6.47;;;4.70;;
17917;SDS011;9084;50.956;3.106;2024-02-21T08:56:14;6.95;;;4.43;;
17917;SDS011;9084;50.956;3.106;2024-02-21T08:58:40;11.65;;;5.05;;
17917;SDS011;9084;50.956;3.106;2024-02-21T09:01:08;7.00;;;4.82;;
17917;SDS011;9084;50.956;3.106;2024-02-21T09:03:36;5.38;;;4.57;;
17917;SDS011;9084;50.956;3.106;2024-02-21T09:06:06;5.93;;;4.82;;
17917;SDS011;9084;50.956;3.106;2024-02-21T09:08:32;5.80;;;5.20;;
17917;SDS011;9084;50.956;3.106;2024-02-21T09:11:00;6.45;;;4.82;;
17917;SDS011;9084;50.956;3.106;2024-02-21T09:13:26;5.40;;;4.90;;
17917;SDS011;9084;50.956;3.106;2024-02-21T09:15:52;5.93;;;4.82;;
17917;SDS011;9084;50.956;3.106;2024-02-21T09:18:18;5.72;;;4.70;;
17917;SDS011;9084;50.956;3.106;2024-02-21T09:20:44;5.72;;;5.13;;
17917;SDS011;9084;50.956;3.106;2024-02-21T09:23:12;5.85;;;4.90;;
17917;SDS011;9084;50.956;3.106;2024-02-21T09:25:38;12.30;;;4.93;;
17917;SDS011;9084;50.956;3.106;2024-02-21T09:28:05;7.00;;;5.55;;
17917;SDS011;9084;50.956;3.106;2024-02-21T09:30:33;6.93;;;4.53;;
17917;SDS011;9084;50.956;3.106;2024-02-21T09:32:59;7.40;;;4.72;;
17917;SDS011;9084;50.956;3.106;2024-02-21T09:35:30;7.05;;;4.72;;
17917;SDS011;9084;50.956;3.106;2024-02-21T09:37:56;5.80;;;5.07;;
17917;SDS011;9084;50.956;3.106;2024-02-21T09:40:22;5.90;;;4.93;;
17917;SDS011;9084;50.956;3.106;2024-02-21T09:42:47;8.20;;;5.07;;
17917;SDS011;9084;50.956;3.106;2024-02-21T09:45:24;5.75;;;5.00;;
17917;SDS011;9084;50.956;3.106;2024-02-21T09:50:27;5.18;;;4.55;;
17917;SDS011;9084;50.956;3.106;2024-02-21T09:52:56;4.40;;;3.92;;
17917;SDS011;9084;50.956;3.106;2024-02-21T09:55:23;7.75;;;4.53;;
17917;SDS011;9084;50.956;3.106;2024-02-21T09:57:52;6.65;;;4.70;;
17917;SDS011;9084;50.956;3.106;2024-02-21T10:00:21;5.43;;;3.72;;
17917;SDS011;9084;50.956;3.106;2024-02-21T10:02:49;5.20;;;3.97;;
17917;SDS011;9084;50.956;3.106;2024-02-21T10:05:17;5.18;;;4.40;;
17917;SDS011;9084;50.956;3.106;2024-02-21T10:07:43;4.13;;;3.65;;
17917;SDS011;9084;50.956;3.106;2024-02-21T10:10:09;4.85;;;3.88;;
17917;SDS011;9084;50.956;3.106;2024-02-21T10:12:35;4.85;;;4.35;;
17917;SDS011;9084;50.956;3.106;2024-02-21T10:15:04;5.43;;;4.68;;
17917;SDS011;9084;50.956;3.106;2024-02-21T10:17:32;5.30;;;3.78;;
17917;SDS011;9084;50.956;3.106;2024-02-21T10:20:09;5.03;;;3.80;;
17917;SDS011;9084;50.956;3.106;2024-02-21T10:22:37;5.07;;;3.80;;
17917;SDS011;9084;50.956;3.106;2024-02-21T10:25:11;5.07;;;3.95;;
17917;SDS011;9084;50.956;3.106;2024-02-21T10:27:42;6.07;;;4.03;;
17917;SDS011;9084;50.956;3.106;2024-02-21T10:30:12;4.63;;;3.83;;
17917;SDS011;9084;50.956;3.106;2024-02-21T10:32:53;5.20;;;3.88;;
17917;SDS011;9084;50.956;3.106;2024-02-21T10:35:26;5.32;;;3.47;;
17917;SDS011;9084;50.956;3.106;2024-02-21T10:37:52;9.25;;;4.55;;
17917;SDS011;9084;50.956;3.106;2024-02-21T10:40:22;7.15;;;4.07;;
17917;SDS011;9084;50.956;3.106;2024-02-21T10:42:59;4.97;;;4.03;;
17917;SDS011;9084;50.956;3.106;2024-02-21T10:45:29;4.32;;;3.92;;
17917;SDS011;9084;50.956;3.106;2024-02-21T10:48:01;4.50;;;3.85;;
17917;SDS011;9084;50.956;3.106;2024-02-21T10:56:38;4.60;;;4.20;;
17917;SDS011;9084;50.956;3.106;2024-02-21T10:59:05;6.50;;;4.40;;
17917;SDS011;9084;50.956;3.106;2024-02-21T11:01:32;4.22;;;3.75;;
17917;SDS011;9084;50.956;3.106;2024-02-21T11:04:10;8.18;;;3.80;;
17917;SDS011;9084;50.956;3.106;2024-02-21T11:06:40;5.32;;;4.13;;
17917;SDS011;9084;50.956;3.106;2024-02-21T11:09:11;5.05;;;3.78;;
17917;SDS011;9084;50.956;3.106;2024-02-21T11:11:38;5.30;;;3.75;;
17917;SDS011;9084;50.956;3.106;2024-02-21T11:19:22;4.63;;;4.13;;
17917;SDS011;9084;50.956;3.106;2024-02-21T11:21:51;4.88;;;4.28;;
17917;SDS011;9084;50.956;3.106;2024-02-21T11:24:25;4.28;;;3.90;;
17917;SDS011;9084;50.956;3.106;2024-02-21T11:27:08;5.88;;;4.43;;
17917;SDS011;9084;50.956;3.106;2024-02-21T11:29:42;5.72;;;4.30;;
17917;SDS011;9084;50.956;3.106;2024-02-21T11:32:22;4.53;;;4.13;;
17917;SDS011;9084;50.956;3.106;2024-02-21T11:34:54;4.88;;;4.13;;
17917;SDS011;9084;50.956;3.106;2024-02-21T11:37:31;4.50;;;4.10;;
17917;SDS011;9084;50.956;3.106;2024-02-21T11:40:03;4.15;;;3.65;;
17917;SDS011;9084;50.956;3.106;2024-02-21T11:42:32;4.55;;;4.15;;
17917;SDS011;9084;50.956;3.106;2024-02-21T11:45:00;4.20;;;3.75;;
17917;SDS011;9084;50.956;3.106;2024-02-21T11:47:28;4.38;;;3.55;;
17917;SDS011;9084;50.956;3.106;2024-02-21T11:49:54;4.38;;;3.75;;
17917;SDS011;9084;50.956;3.106;2024-02-21T11:52:24;5.50;;;3.33;;
17917;SDS011;9084;50.956;3.106;2024-02-21T11:54:51;4.47;;;3.55;;
17917;SDS011;9084;50.956;3.106;2024-02-21T11:57:24;3.63;;;3.25;;
17917;SDS011;9084;50.956;3.106;2024-02-21T11:59:50;3.78;;;3.35;;
17917;SDS011;9084;50.956;3.106;2024-02-21T12:02:19;5.05;;;3.08;;
17917;SDS011;9084;50.956;3.106;2024-02-21T12:04:48;4.47;;;3.40;;
17917;SDS011;9084;50.956;3.106;2024-02-21T12:07:14;4.15;;;3.10;;
17917;SDS011;9084;50.956;3.106;2024-02-21T12:09:42;3.75;;;3.13;;
17917;SDS011;9084;50.956;3.106;2024-02-21T12:12:07;4.50;;;3.20;;
17917;SDS011;9084;50.956;3.106;2024-02-21T12:14:34;3.70;;;3.10;;
17917;SDS011;9084;50.956;3.106;2024-02-21T12:17:00;3.00;;;2.70;;
17917;SDS011;9084;50.956;3.106;2024-02-21T12:19:34;3.47;;;2.83;;
17917;SDS011;9084;50.956;3.106;2024-02-21T12:22:04;3.95;;;2.63;;
17917;SDS011;9084;50.956;3.106;2024-02-21T12:24:33;3.53;;;2.75;;
17917;SDS011;9084;50.956;3.106;2024-02-21T12:27:00;3.63;;;2.45;;
17917;SDS011;9084;50.956;3.106;2024-02-21T12:29:28;2.58;;;2.38;;
17917;SDS011;9084;50.956;3.106;2024-02-21T12:31:56;2.92;;;2.72;;
17917;SDS011;9084;50.956;3.106;2024-02-21T12:34:23;3.78;;;2.60;;
17917;SDS011;9084;50.956;3.106;2024-02-21T12:36:52;3.83;;;2.53;;
17917;SDS011;9084;50.956;3.106;2024-02-21T12:39:19;3.33;;;2.40;;
17917;SDS011;9084;50.956;3.106;2024-02-21T12:41:45;3.28;;;2.60;;
17917;SDS011;9084;50.956;3.106;2024-02-21T12:44:11;2.90;;;2.67;;
17917;SDS011;9084;50.956;3.106;2024-02-21T12:46:37;3.90;;;2.67;;
17917;SDS011;9084;50.956;3.106;2024-02-21T12:49:06;2.60;;;2.40;;
17917;SDS011;9084;50.956;3.106;2024-02-21T12:51:38;3.40;;;2.45;;
17917;SDS011;9084;50.956;3.106;2024-02-21T12:54:04;4.07;;;2.85;;
17917;SDS011;9084;50.956;3.106;2024-02-21T12:56:30;3.25;;;2.83;;
17917;SDS011;9084;50.956;3.106;2024-02-21T12:58:58;2.97;;;2.40;;
17917;SDS011;9084;50.956;3.106;2024-02-21T13:01:26;4.32;;;3.00;;
17917;SDS011;9084;50.956;3.106;2024-02-21T13:03:53;5.05;;;2.90;;
17917;SDS011;9084;50.956;3.106;2024-02-21T13:06:19;5.13;;;2.83;;
17917;SDS011;9084;50.956;3.106;2024-02-21T13:08:47;5.65;;;2.92;;
17917;SDS011;9084;50.956;3.106;2024-02-21T13:11:15;3.17;;;2.88;;
17917;SDS011;9084;50.956;3.106;2024-02-21T13:13:41;3.92;;;3.03;;
17917;SDS011;9084;50.956;3.106;2024-02-21T13:16:07;6.50;;;3.10;;
17917;SDS011;9084;50.956;3.106;2024-02-21T13:18:34;4.25;;;3.10;;
17917;SDS011;9084;50.956;3.106;2024-02-21T13:21:02;4.15;;;3.30;;
17917;SDS011;9084;50.956;3.106;2024-02-21T13:23:29;4.95;;;2.55;;
17917;SDS011;9084;50.956;3.106;2024-02-21T13:25:55;6.70;;;3.10;;
17917;SDS011;9084;50.956;3.106;2024-02-21T13:28:23;3.05;;;2.55;;
17917;SDS011;9084;50.956;3.106;2024-02-21T13:30:48;4.47;;;2.88;;
17917;SDS011;9084;50.956;3.106;2024-02-21T13:33:14;6.00;;;3.08;;
17917;SDS011;9084;50.956;3.106;2024-02-21T13:35:42;3.25;;;2.95;;
17917;SDS011;9084;50.956;3.106;2024-02-21T13:38:10;4.22;;;2.90;;
17917;SDS011;9084;50.956;3.106;2024-02-21T13:40:39;5.47;;;2.97;;
17917;SDS011;9084;50.956;3.106;2024-02-21T13:43:07;5.30;;;3.40;;
17917;SDS011;9084;50.956;3.106;2024-02-21T13:45:35;4.82;;;3.10;;
17917;SDS011;9084;50.956;3.106;2024-02-21T13:48:03;2.90;;;2.58;;
17917;SDS011;9084;50.956;3.106;2024-02-21T13:50:31;4.72;;;3.00;;
17917;SDS011;9084;50.956;3.106;2024-02-21T13:52:59;4.07;;;3.33;;
17917;SDS011;9084;50.956;3.106;2024-02-21T13:55:26;3.55;;;3.25;;
17917;SDS011;9084;50.956;3.106;2024-02-21T13:57:54;3.67;;;3.05;;
17917;SDS011;9084;50.956;3.106;2024-02-21T14:00:20;3.25;;;2.90;;
17917;SDS011;9084;50.956;3.106;2024-02-21T14:02:47;2.85;;;2.58;;
17917;SDS011;9084;50.956;3.106;2024-02-21T14:05:13;3.55;;;2.85;;
17917;SDS011;9084;50.956;3.106;2024-02-21T14:07:39;3.42;;;3.13;;
17917;SDS011;9084;50.956;3.106;2024-02-21T14:10:05;3.42;;;3.13;;
17917;SDS011;9084;50.956;3.106;2024-02-21T14:12:31;3.88;;;3.40;;
17917;SDS011;9084;50.956;3.106;2024-02-21T14:14:59;5.45;;;4.22;;
17917;SDS011;9084;50.956;3.106;2024-02-21T14:17:27;4.32;;;3.15;;
17917;SDS011;9084;50.956;3.106;2024-02-21T14:19:53;5.35;;;3.22;;
17917;SDS011;9084;50.956;3.106;2024-02-21T14:22:18;4.80;;;3.03;;
17917;SDS011;9084;50.956;3.106;2024-02-21T14:24:45;5.57;;;3.08;;
17917;SDS011;9084;50.956;3.106;2024-02-21T14:27:10;3.55;;;3.25;;
17917;SDS011;9084;50.956;3.106;2024-02-21T14:29:37;6.50;;;3.53;;
17917;SDS011;9084;50.956;3.106;2024-02-21T14:32:03;4.05;;;3.42;;
17917;SDS011;9084;50.956;3.106;2024-02-21T14:34:30;3.30;;;2.70;;
17917;SDS011;9084;50.956;3.106;2024-02-21T14:36:56;4.25;;;3.38;;
17917;SDS011;9084;50.956;3.106;2024-02-21T14:39:21;5.30;;;3.88;;
17917;SDS011;9084;50.956;3.106;2024-02-21T14:41:48;4.18;;;2.97;;
17917;SDS011;9084;50.956;3.106;2024-02-21T14:44:16;3.33;;;3.03;;
17917;SDS011;9084;50.956;3.106;2024-02-21T14:46:41;4.30;;;3.90;;
17917;SDS011;9084;50.956;3.106;2024-02-21T14:49:07;3.70;;;3.40;;
17917;SDS011;9084;50.956;3.106;2024-02-21T14:51:35;6.38;;;3.67;;
17917;SDS011;9084;50.956;3.106;2024-02-21T14:54:03;3.83;;;3.53;;
17917;SDS011;9084;50.956;3.106;2024-02-21T14:56:29;4.72;;;3.13;;
17917;SDS011;9084;50.956;3.106;2024-02-21T14:58:57;5.70;;;3.80;;
17917;SDS011;9084;50.956;3.106;2024-02-21T15:01:25;4.10;;;3.38;;
17917;SDS011;9084;50.956;3.106;2024-02-21T15:03:51;4.47;;;3.47;;
17917;SDS011;9084;50.956;3.106;2024-02-21T15:06:17;5.47;;;3.50;;
17917;SDS011;9084;50.956;3.106;2024-02-21T15:08:45;6.00;;;3.42;;
17917;SDS011;9084;50.956;3.106;2024-02-21T15:11:13;3.85;;;3.20;;
17917;SDS011;9084;50.956;3.106;2024-02-21T15:13:43;6.72;;;4.78;;
17917;SDS011;9084;50.956;3.106;2024-02-21T15:16:08;4.38;;;3.22;;